Aviation Digital Data Service (ADDS)

Output produced by METARs form (0215 UTC 02 August 2015)
found at http://aviationweather.gov/adds/metars/
 
KMBS 012324Z 0200/0224 27014G20KT P6SM SCT080 
     FM020100 25008KT P6SM SCT250 
     FM021400 22011G18KT P6SM SCT080 BKN150 
     FM021700 24016G26KT P6SM SCT045 BKN200 
     PROB30 0220/0224 2SM TSRA BKN040CB OVC080